sensor_id;sensor_type;location;lat;lon;timestamp;pressure;altitude;pressure_sealevel;temperature;humidity
65127;BME280;51927;49.080;19.652;2023-02-22T00:00:02;94231.56;;;27.96;32.39
65127;BME280;51927;49.080;19.652;2023-02-22T00:00:15;94235.84;;;27.97;32.34
65127;BME280;51927;49.080;19.652;2023-02-22T00:00:23;94235.84;;;27.97;32.60
65127;BME280;51927;49.080;19.652;2023-02-22T00:00:46;94230.03;;;27.95;32.23
65127;BME280;51927;49.080;19.652;2023-02-22T00:00:53;94234.59;;;27.95;32.52
65127;BME280;51927;49.080;19.652;2023-02-22T00:01:03;94232.72;;;27.95;32.14
65127;BME280;51927;49.080;19.652;2023-02-22T00:01:23;94232.28;;;27.93;32.44
65127;BME280;51927;49.080;19.652;2023-02-22T00:01:46;94230.69;;;27.92;32.40
65127;BME280;51927;49.080;19.652;2023-02-22T00:01:54;94229.91;;;27.92;32.50
65127;BME280;51927;49.080;19.652;2023-02-22T00:02:14;94234.50;;;27.91;32.45
65127;BME280;51927;49.080;19.652;2023-02-22T00:02:31;94230.28;;;27.90;32.42
65127;BME280;51927;49.080;19.652;2023-02-22T00:02:38;94232.16;;;27.90;32.55
65127;BME280;51927;49.080;19.652;2023-02-22T00:02:43;94239.47;;;27.89;32.60
65127;BME280;51927;49.080;19.652;2023-02-22T00:02:49;94232.97;;;27.90;32.63
65127;BME280;51927;49.080;19.652;2023-02-22T00:02:55;94230.63;;;27.89;32.53
65127;BME280;51927;49.080;19.652;2023-02-22T00:03:03;94231.38;;;27.89;32.29
65127;BME280;51927;49.080;19.652;2023-02-22T00:03:20;94236.75;;;27.89;32.24
65127;BME280;51927;49.080;19.652;2023-02-22T00:03:31;94232.97;;;27.90;32.41
65127;BME280;51927;49.080;19.652;2023-02-22T00:03:36;94239.47;;;27.89;32.37
65127;BME280;51927;49.080;19.652;2023-02-22T00:03:42;94235.19;;;27.88;32.69
65127;BME280;51927;49.080;19.652;2023-02-22T00:03:52;94240.56;;;27.88;32.57
65127;BME280;51927;49.080;19.652;2023-02-22T00:03:57;94242.16;;;27.89;32.65
65127;BME280;51927;49.080;19.652;2023-02-22T00:04:03;94241.38;;;27.89;32.40
65127;BME280;51927;49.080;19.652;2023-02-22T00:04:09;94241.38;;;27.89;32.76
65127;BME280;51927;49.080;19.652;2023-02-22T00:04:14;94236.75;;;27.89;32.54
65127;BME280;51927;49.080;19.652;2023-02-22T00:04:23;94237.53;;;27.90;32.77
65127;BME280;51927;49.080;19.652;2023-02-22T00:04:28;94232.50;;;27.88;32.54
65127;BME280;51927;49.080;19.652;2023-02-22T00:04:33;94234.06;;;27.89;32.55
65127;BME280;51927;49.080;19.652;2023-02-22T00:04:39;94232.97;;;27.90;32.39
65127;BME280;51927;49.080;19.652;2023-02-22T00:04:44;94238.34;;;27.90;32.42
65127;BME280;51927;49.080;19.652;2023-02-22T00:04:49;94237.19;;;27.91;32.40
65127;BME280;51927;49.080;19.652;2023-02-22T00:04:55;94234.50;;;27.91;32.57
65127;BME280;51927;49.080;19.652;2023-02-22T00:05:00;94240.69;;;27.92;32.54
65127;BME280;51927;49.080;19.652;2023-02-22T00:05:05;94233.72;;;27.91;32.46
65127;BME280;51927;49.080;19.652;2023-02-22T00:05:10;94233.38;;;27.92;32.41
65127;BME280;51927;49.080;19.652;2023-02-22T00:05:16;94243.38;;;27.92;32.50
65127;BME280;51927;49.080;19.652;2023-02-22T00:05:24;94236.06;;;27.92;32.48
65127;BME280;51927;49.080;19.652;2023-02-22T00:05:30;94243.06;;;27.93;32.64
65127;BME280;51927;49.080;19.652;2023-02-22T00:05:35;94236.06;;;27.92;32.41
65127;BME280;51927;49.080;19.652;2023-02-22T00:05:44;94238.75;;;27.92;32.66
65127;BME280;51927;49.080;19.652;2023-02-22T00:05:54;94243.38;;;27.92;32.46
65127;BME280;51927;49.080;19.652;2023-02-22T00:06:03;94240.38;;;27.93;32.37
65127;BME280;51927;49.080;19.652;2023-02-22T00:06:14;94233.84;;;27.94;32.46
65127;BME280;51927;49.080;19.652;2023-02-22T00:06:20;94231.47;;;27.93;32.47
65127;BME280;51927;49.080;19.652;2023-02-22T00:06:27;94232.28;;;27.93;32.46
65127;BME280;51927;49.080;19.652;2023-02-22T00:06:33;94233.84;;;27.94;32.52
65127;BME280;51927;49.080;19.652;2023-02-22T00:06:38;94238.44;;;27.94;32.54
65127;BME280;51927;49.080;19.652;2023-02-22T00:06:44;94238.44;;;27.94;32.44
65127;BME280;51927;49.080;19.652;2023-02-22T00:06:49;94238.44;;;27.94;32.50
65127;BME280;51927;49.080;19.652;2023-02-22T00:06:55;94238.44;;;27.94;32.46
65127;BME280;51927;49.080;19.652;2023-02-22T00:07:05;94234.59;;;27.95;32.41
65127;BME280;51927;49.080;19.652;2023-02-22T00:07:11;94233.06;;;27.94;32.26
65127;BME280;51927;49.080;19.652;2023-02-22T00:07:16;94228.44;;;27.94;32.46
65127;BME280;51927;49.080;19.652;2023-02-22T00:07:21;94239.22;;;27.94;32.69
65127;BME280;51927;49.080;19.652;2023-02-22T00:07:27;94236.53;;;27.94;32.35
65127;BME280;51927;49.080;19.652;2023-02-22T00:07:32;94236.53;;;27.94;32.27
65127;BME280;51927;49.080;19.652;2023-02-22T00:07:37;94236.53;;;27.94;32.29
65127;BME280;51927;49.080;19.652;2023-02-22T00:07:43;94235.41;;;27.95;32.53
65127;BME280;51927;49.080;19.652;2023-02-22T00:07:48;94236.53;;;27.94;32.68
65127;BME280;51927;49.080;19.652;2023-02-22T00:07:54;94240.00;;;27.95;32.27
65127;BME280;51927;49.080;19.652;2023-02-22T00:08:02;94240.78;;;27.95;32.61
65127;BME280;51927;49.080;19.652;2023-02-22T00:08:07;94233.06;;;27.94;32.38
65127;BME280;51927;49.080;19.652;2023-02-22T00:08:16;94237.31;;;27.95;32.64
65127;BME280;51927;49.080;19.652;2023-02-22T00:08:22;94240.00;;;27.95;32.61
65127;BME280;51927;49.080;19.652;2023-02-22T00:08:28;94237.69;;;27.93;32.49
65127;BME280;51927;49.080;19.652;2023-02-22T00:08:35;94240.00;;;27.95;32.46
65127;BME280;51927;49.080;19.652;2023-02-22T00:08:41;94230.38;;;27.94;32.40
65127;BME280;51927;49.080;19.652;2023-02-22T00:08:46;94240.00;;;27.95;32.50
65127;BME280;51927;49.080;19.652;2023-02-22T00:08:53;94238.09;;;27.95;32.21
65127;BME280;51927;49.080;19.652;2023-02-22T00:08:59;94241.91;;;27.94;32.63
65127;BME280;51927;49.080;19.652;2023-02-22T00:09:06;94240.38;;;27.93;32.67
65127;BME280;51927;49.080;19.652;2023-02-22T00:09:13;94239.22;;;27.94;32.79
65127;BME280;51927;49.080;19.652;2023-02-22T00:09:24;94241.91;;;27.94;32.61
65127;BME280;51927;49.080;19.652;2023-02-22T00:09:29;94241.91;;;27.94;32.65
65127;BME280;51927;49.080;19.652;2023-02-22T00:09:34;94241.91;;;27.94;32.51
65127;BME280;51927;49.080;19.652;2023-02-22T00:09:39;94243.84;;;27.94;32.67
65127;BME280;51927;49.080;19.652;2023-02-22T00:09:44;94233.84;;;27.94;32.61
65127;BME280;51927;49.080;19.652;2023-02-22T00:09:50;94240.78;;;27.95;32.58
65127;BME280;51927;49.080;19.652;2023-02-22T00:09:55;94237.69;;;27.93;32.40
65127;BME280;51927;49.080;19.652;2023-02-22T00:10:00;94238.44;;;27.94;32.40
65127;BME280;51927;49.080;19.652;2023-02-22T00:10:06;94239.22;;;27.94;32.64
65127;BME280;51927;49.080;19.652;2023-02-22T00:10:17;94241.56;;;27.96;32.44
65127;BME280;51927;49.080;19.652;2023-02-22T00:10:25;94240.78;;;27.95;32.63
65127;BME280;51927;49.080;19.652;2023-02-22T00:10:30;94238.88;;;27.96;32.28
65127;BME280;51927;49.080;19.652;2023-02-22T00:10:36;94237.31;;;27.95;32.34
65127;BME280;51927;49.080;19.652;2023-02-22T00:10:44;94240.78;;;27.95;32.70
65127;BME280;51927;49.080;19.652;2023-02-22T00:10:49;94238.88;;;27.96;32.34
65127;BME280;51927;49.080;19.652;2023-02-22T00:11:02;94240.78;;;27.95;32.64
65127;BME280;51927;49.080;19.652;2023-02-22T00:11:07;94241.91;;;27.94;32.29
65127;BME280;51927;49.080;19.652;2023-02-22T00:11:13;94240.38;;;27.93;32.45
65127;BME280;51927;49.080;19.652;2023-02-22T00:11:18;94244.59;;;27.94;32.65
65127;BME280;51927;49.080;19.652;2023-02-22T00:11:25;94230.38;;;27.94;32.57
65127;BME280;51927;49.080;19.652;2023-02-22T00:11:30;94237.69;;;27.93;32.41
65127;BME280;51927;49.080;19.652;2023-02-22T00:11:35;94239.22;;;27.94;32.09
65127;BME280;51927;49.080;19.652;2023-02-22T00:11:45;94237.69;;;27.93;32.65
65127;BME280;51927;49.080;19.652;2023-02-22T00:11:51;94245.75;;;27.93;32.82
65127;BME280;51927;49.080;19.652;2023-02-22T00:11:56;94242.22;;;27.93;32.51
65127;BME280;51927;49.080;19.652;2023-02-22T00:12:02;94249.22;;;27.94;32.33
65127;BME280;51927;49.080;19.652;2023-02-22T00:12:07;94243.84;;;27.94;32.63
65127;BME280;51927;49.080;19.652;2023-02-22T00:12:14;94246.53;;;27.94;32.64
65127;BME280;51927;49.080;19.652;2023-02-22T00:12:19;94243.06;;;27.93;32.51
65127;BME280;51927;49.080;19.652;2023-02-22T00:12:24;94238.44;;;27.94;32.26
65127;BME280;51927;49.080;19.652;2023-02-22T00:12:33;94237.69;;;27.93;32.62
65127;BME280;51927;49.080;19.652;2023-02-22T00:12:41;94233.06;;;27.94;32.68
65127;BME280;51927;49.080;19.652;2023-02-22T00:12:46;94239.53;;;27.93;32.40
65127;BME280;51927;49.080;19.652;2023-02-22T00:12:54;94233.38;;;27.92;32.54
65127;BME280;51927;49.080;19.652;2023-02-22T00:12:59;94238.75;;;27.92;32.57
65127;BME280;51927;49.080;19.652;2023-02-22T00:13:06;94234.50;;;27.91;32.52
65127;BME280;51927;49.080;19.652;2023-02-22T00:13:12;94238.75;;;27.92;32.52
65127;BME280;51927;49.080;19.652;2023-02-22T00:13:18;94240.38;;;27.93;32.49
65127;BME280;51927;49.080;19.652;2023-02-22T00:13:23;94240.38;;;27.93;32.47
65127;BME280;51927;49.080;19.652;2023-02-22T00:13:29;94237.69;;;27.93;32.61
65127;BME280;51927;49.080;19.652;2023-02-22T00:13:35;94229.59;;;27.93;32.35
65127;BME280;51927;49.080;19.652;2023-02-22T00:13:40;94239.22;;;27.94;32.46
65127;BME280;51927;49.080;19.652;2023-02-22T00:13:49;94232.28;;;27.93;32.65
65127;BME280;51927;49.080;19.652;2023-02-22T00:13:54;94238.44;;;27.94;32.29
65127;BME280;51927;49.080;19.652;2023-02-22T00:14:01;94234.97;;;27.93;32.56
65127;BME280;51927;49.080;19.652;2023-02-22T00:14:06;94234.97;;;27.93;32.72
65127;BME280;51927;49.080;19.652;2023-02-22T00:14:11;94236.84;;;27.93;32.35
65127;BME280;51927;49.080;19.652;2023-02-22T00:14:16;94237.69;;;27.93;32.65
65127;BME280;51927;49.080;19.652;2023-02-22T00:14:24;94234.97;;;27.93;32.52
65127;BME280;51927;49.080;19.652;2023-02-22T00:14:32;94234.97;;;27.93;32.35
65127;BME280;51927;49.080;19.652;2023-02-22T00:14:37;94240.38;;;27.93;32.62
65127;BME280;51927;49.080;19.652;2023-02-22T00:14:44;94240.38;;;27.93;32.59
65127;BME280;51927;49.080;19.652;2023-02-22T00:14:49;94232.28;;;27.93;32.15
65127;BME280;51927;49.080;19.652;2023-02-22T00:14:55;94234.97;;;27.93;32.20
65127;BME280;51927;49.080;19.652;2023-02-22T00:15:00;94234.97;;;27.93;32.50
65127;BME280;51927;49.080;19.652;2023-02-22T00:15:05;94234.16;;;27.93;32.46
65127;BME280;51927;49.080;19.652;2023-02-22T00:15:10;94233.84;;;27.94;32.64
65127;BME280;51927;49.080;19.652;2023-02-22T00:15:19;94236.53;;;27.94;32.37
65127;BME280;51927;49.080;19.652;2023-02-22T00:15:24;94243.84;;;27.94;32.32
65127;BME280;51927;49.080;19.652;2023-02-22T00:15:31;94236.53;;;27.94;32.26
65127;BME280;51927;49.080;19.652;2023-02-22T00:15:37;94234.16;;;27.93;32.63
65127;BME280;51927;49.080;19.652;2023-02-22T00:15:45;94236.84;;;27.93;32.53
65127;BME280;51927;49.080;19.652;2023-02-22T00:15:50;94243.06;;;27.93;32.65
65127;BME280;51927;49.080;19.652;2023-02-22T00:15:55;94231.47;;;27.93;32.39
65127;BME280;51927;49.080;19.652;2023-02-22T00:16:01;94236.84;;;27.93;32.50
65127;BME280;51927;49.080;19.652;2023-02-22T00:16:06;94236.06;;;27.92;32.76
65127;BME280;51927;49.080;19.652;2023-02-22T00:16:12;94234.16;;;27.93;32.40
65127;BME280;51927;49.080;19.652;2023-02-22T00:16:19;94239.53;;;27.93;32.51
65127;BME280;51927;49.080;19.652;2023-02-22T00:16:25;94232.28;;;27.93;32.63
65127;BME280;51927;49.080;19.652;2023-02-22T00:16:30;94235.75;;;27.94;32.34
65127;BME280;51927;49.080;19.652;2023-02-22T00:16:35;94237.69;;;27.93;32.43
65127;BME280;51927;49.080;19.652;2023-02-22T00:16:41;94236.84;;;27.93;32.64
65127;BME280;51927;49.080;19.652;2023-02-22T00:16:46;94230.38;;;27.94;32.64
65127;BME280;51927;49.080;19.652;2023-02-22T00:16:51;94240.00;;;27.95;32.49
65127;BME280;51927;49.080;19.652;2023-02-22T00:16:56;94236.19;;;27.96;32.75
65127;BME280;51927;49.080;19.652;2023-02-22T00:17:03;94229.59;;;27.93;32.21
65127;BME280;51927;49.080;19.652;2023-02-22T00:17:08;94239.22;;;27.94;32.57
65127;BME280;51927;49.080;19.652;2023-02-22T00:17:17;94234.97;;;27.93;32.68
65127;BME280;51927;49.080;19.652;2023-02-22T00:17:24;94236.53;;;27.94;32.67
65127;BME280;51927;49.080;19.652;2023-02-22T00:17:29;94235.75;;;27.94;32.70
65127;BME280;51927;49.080;19.652;2023-02-22T00:17:34;94233.84;;;27.94;32.33
65127;BME280;51927;49.080;19.652;2023-02-22T00:17:40;94231.16;;;27.94;32.40
65127;BME280;51927;49.080;19.652;2023-02-22T00:17:45;94225.75;;;27.94;32.67
65127;BME280;51927;49.080;19.652;2023-02-22T00:17:50;94231.91;;;27.95;32.53
65127;BME280;51927;49.080;19.652;2023-02-22T00:17:55;94228.44;;;27.94;32.45
65127;BME280;51927;49.080;19.652;2023-02-22T00:18:01;94232.72;;;27.95;32.61
65127;BME280;51927;49.080;19.652;2023-02-22T00:18:07;94235.41;;;27.95;32.37
65127;BME280;51927;49.080;19.652;2023-02-22T00:18:15;94238.09;;;27.95;32.51
65127;BME280;51927;49.080;19.652;2023-02-22T00:18:20;94235.41;;;27.95;32.34
65127;BME280;51927;49.080;19.652;2023-02-22T00:18:26;94235.41;;;27.95;32.68
65127;BME280;51927;49.080;19.652;2023-02-22T00:18:32;94232.72;;;27.95;32.49
65127;BME280;51927;49.080;19.652;2023-02-22T00:18:37;94233.06;;;27.94;32.65
65127;BME280;51927;49.080;19.652;2023-02-22T00:18:43;94235.41;;;27.95;32.56
65127;BME280;51927;49.080;19.652;2023-02-22T00:18:48;94234.25;;;27.96;32.77
65127;BME280;51927;49.080;19.652;2023-02-22T00:18:53;94234.25;;;27.96;32.33
65127;BME280;51927;49.080;19.652;2023-02-22T00:18:58;94233.50;;;27.96;32.62
65127;BME280;51927;49.080;19.652;2023-02-22T00:19:04;94236.19;;;27.96;32.49
65127;BME280;51927;49.080;19.652;2023-02-22T00:19:09;94239.66;;;27.96;32.67
65127;BME280;51927;49.080;19.652;2023-02-22T00:19:15;94236.19;;;27.96;32.23
65127;BME280;51927;49.080;19.652;2023-02-22T00:19:20;94240.78;;;27.95;32.28
65127;BME280;51927;49.080;19.652;2023-02-22T00:19:26;94235.41;;;27.95;32.49
65127;BME280;51927;49.080;19.652;2023-02-22T00:19:34;94231.91;;;27.95;32.50
65127;BME280;51927;49.080;19.652;2023-02-22T00:19:39;94238.09;;;27.95;32.68
65127;BME280;51927;49.080;19.652;2023-02-22T00:19:45;94233.84;;;27.94;32.56
65127;BME280;51927;49.080;19.652;2023-02-22T00:19:52;94240.78;;;27.95;32.38
65127;BME280;51927;49.080;19.652;2023-02-22T00:19:57;94238.09;;;27.95;32.68
65127;BME280;51927;49.080;19.652;2023-02-22T00:20:03;94240.78;;;27.95;32.56
65127;BME280;51927;49.080;19.652;2023-02-22T00:20:11;94239.22;;;27.94;32.57
65127;BME280;51927;49.080;19.652;2023-02-22T00:20:18;94242.69;;;27.95;32.62
65127;BME280;51927;49.080;19.652;2023-02-22T00:20:23;94239.22;;;27.94;32.56
65127;BME280;51927;49.080;19.652;2023-02-22T00:20:29;94235.75;;;27.94;32.49
65127;BME280;51927;49.080;19.652;2023-02-22T00:20:34;94237.69;;;27.93;32.41
65127;BME280;51927;49.080;19.652;2023-02-22T00:20:42;94232.28;;;27.93;32.74
65127;BME280;51927;49.080;19.652;2023-02-22T00:20:48;94237.69;;;27.93;32.44
65127;BME280;51927;49.080;19.652;2023-02-22T00:20:56;94233.84;;;27.94;32.44
65127;BME280;51927;49.080;19.652;2023-02-22T00:21:05;94235.41;;;27.95;32.55
65127;BME280;51927;49.080;19.652;2023-02-22T00:21:14;94246.19;;;27.95;32.37
65127;BME280;51927;49.080;19.652;2023-02-22T00:21:20;94237.69;;;27.93;32.53
65127;BME280;51927;49.080;19.652;2023-02-22T00:21:25;94233.84;;;27.94;32.74
65127;BME280;51927;49.080;19.652;2023-02-22T00:21:31;94239.22;;;27.94;32.38
65127;BME280;51927;49.080;19.652;2023-02-22T00:21:36;94235.41;;;27.95;32.53
65127;BME280;51927;49.080;19.652;2023-02-22T00:21:41;94235.41;;;27.95;32.69
65127;BME280;51927;49.080;19.652;2023-02-22T00:21:51;94236.53;;;27.94;32.67
65127;BME280;51927;49.080;19.652;2023-02-22T00:21:57;94241.91;;;27.94;32.51
65127;BME280;51927;49.080;19.652;2023-02-22T00:22:02;94234.59;;;27.95;32.57
65127;BME280;51927;49.080;19.652;2023-02-22T00:22:07;94241.56;;;27.96;32.69
65127;BME280;51927;49.080;19.652;2023-02-22T00:22:12;94237.31;;;27.95;32.52
65127;BME280;51927;49.080;19.652;2023-02-22T00:22:17;94234.59;;;27.95;32.17
65127;BME280;51927;49.080;19.652;2023-02-22T00:22:23;94238.09;;;27.95;32.68
65127;BME280;51927;49.080;19.652;2023-02-22T00:22:28;94233.84;;;27.94;32.33
65127;BME280;51927;49.080;19.652;2023-02-22T00:22:33;94239.22;;;27.94;32.67
65127;BME280;51927;49.080;19.652;2023-02-22T00:22:39;94239.22;;;27.94;32.64
65127;BME280;51927;49.080;19.652;2023-02-22T00:22:45;94240.00;;;27.95;32.50
65127;BME280;51927;49.080;19.652;2023-02-22T00:22:51;94237.69;;;27.93;32.51
65127;BME280;51927;49.080;19.652;2023-02-22T00:22:57;94243.06;;;27.93;32.70
65127;BME280;51927;49.080;19.652;2023-02-22T00:23:06;94242.69;;;27.95;32.75
65127;BME280;51927;49.080;19.652;2023-02-22T00:23:13;94241.91;;;27.94;32.34
65127;BME280;51927;49.080;19.652;2023-02-22T00:23:20;94233.84;;;27.94;32.80
65127;BME280;51927;49.080;19.652;2023-02-22T00:23:27;94238.44;;;27.94;32.63
65127;BME280;51927;49.080;19.652;2023-02-22T00:23:33;94248.06;;;27.95;32.56
65127;BME280;51927;49.080;19.652;2023-02-22T00:23:40;94238.44;;;27.94;32.53
65127;BME280;51927;49.080;19.652;2023-02-22T00:23:47;94238.44;;;27.94;32.47
65127;BME280;51927;49.080;19.652;2023-02-22T00:23:53;94242.22;;;27.93;32.41
65127;BME280;51927;49.080;19.652;2023-02-22T00:23:58;94238.44;;;27.94;32.62
65127;BME280;51927;49.080;19.652;2023-02-22T00:24:03;94243.06;;;27.93;32.51
65127;BME280;51927;49.080;19.652;2023-02-22T00:24:26;94243.47;;;27.95;32.56
65127;BME280;51927;49.080;19.652;2023-02-22T00:24:33;94237.75;;;27.97;32.55
65127;BME280;51927;49.080;19.652;2023-02-22T00:24:40;94244.25;;;27.96;32.53
65127;BME280;51927;49.080;19.652;2023-02-22T00:24:45;94243.47;;;27.95;32.52
65127;BME280;51927;49.080;19.652;2023-02-22T00:24:50;94246.94;;;27.96;32.45
65127;BME280;51927;49.080;19.652;2023-02-22T00:24:56;94243.47;;;27.95;32.42
65127;BME280;51927;49.080;19.652;2023-02-22T00:25:01;94247.28;;;27.94;32.37
65127;BME280;51927;49.080;19.652;2023-02-22T00:25:07;94242.69;;;27.95;32.51
65127;BME280;51927;49.080;19.652;2023-02-22T00:25:13;94246.19;;;27.95;32.53
65127;BME280;51927;49.080;19.652;2023-02-22T00:25:19;94247.28;;;27.94;32.58
65127;BME280;51927;49.080;19.652;2023-02-22T00:25:25;94246.19;;;27.95;32.40
65127;BME280;51927;49.080;19.652;2023-02-22T00:25:30;94248.88;;;27.95;32.44
65127;BME280;51927;49.080;19.652;2023-02-22T00:25:35;94247.72;;;27.96;32.46
65127;BME280;51927;49.080;19.652;2023-02-22T00:25:40;94248.06;;;27.95;32.37
65127;BME280;51927;49.080;19.652;2023-02-22T00:25:46;94246.19;;;27.95;32.61
65127;BME280;51927;49.080;19.652;2023-02-22T00:25:52;94246.19;;;27.95;32.62
65127;BME280;51927;49.080;19.652;2023-02-22T00:25:58;94246.19;;;27.95;32.50
65127;BME280;51927;49.080;19.652;2023-02-22T00:26:03;94240.78;;;27.95;32.63
65127;BME280;51927;49.080;19.652;2023-02-22T00:26:08;94246.19;;;27.95;32.74
65127;BME280;51927;49.080;19.652;2023-02-22T00:26:15;94244.25;;;27.96;32.44
65127;BME280;51927;49.080;19.652;2023-02-22T00:26:22;94248.88;;;27.95;32.27
65127;BME280;51927;49.080;19.652;2023-02-22T00:26:27;94239.22;;;27.94;32.40
65127;BME280;51927;49.080;19.652;2023-02-22T00:26:32;94242.69;;;27.95;32.69
65127;BME280;51927;49.080;19.652;2023-02-22T00:26:37;94241.91;;;27.94;32.43
65127;BME280;51927;49.080;19.652;2023-02-22T00:26:43;94244.59;;;27.94;32.49
65127;BME280;51927;49.080;19.652;2023-02-22T00:26:51;94243.47;;;27.95;32.64
65127;BME280;51927;49.080;19.652;2023-02-22T00:26:59;94244.59;;;27.94;32.34
65127;BME280;51927;49.080;19.652;2023-02-22T00:27:04;94238.44;;;27.94;32.62
65127;BME280;51927;49.080;19.652;2023-02-22T00:27:09;94243.84;;;27.94;32.56
65127;BME280;51927;49.080;19.652;2023-02-22T00:27:14;94244.59;;;27.94;32.55
65127;BME280;51927;49.080;19.652;2023-02-22T00:27:20;94241.13;;;27.94;32.57
65127;BME280;51927;49.080;19.652;2023-02-22T00:27:26;94244.59;;;27.94;32.47
65127;BME280;51927;49.080;19.652;2023-02-22T00:27:31;94239.22;;;27.94;32.37
65127;BME280;51927;49.080;19.652;2023-02-22T00:27:36;94240.78;;;27.95;32.59
65127;BME280;51927;49.080;19.652;2023-02-22T00:27:41;94246.19;;;27.95;32.37
65127;BME280;51927;49.080;19.652;2023-02-22T00:27:47;94242.69;;;27.95;32.52
65127;BME280;51927;49.080;19.652;2023-02-22T00:27:52;94241.13;;;27.94;32.56
65127;BME280;51927;49.080;19.652;2023-02-22T00:27:57;94244.59;;;27.94;32.62
65127;BME280;51927;49.080;19.652;2023-02-22T00:28:03;94243.84;;;27.94;32.75
65127;BME280;51927;49.080;19.652;2023-02-22T00:28:09;94245.38;;;27.95;32.37
65127;BME280;51927;49.080;19.652;2023-02-22T00:28:14;94242.69;;;27.95;32.56
65127;BME280;51927;49.080;19.652;2023-02-22T00:28:20;94243.84;;;27.94;32.56
65127;BME280;51927;49.080;19.652;2023-02-22T00:28:28;94239.22;;;27.94;32.83
65127;BME280;51927;49.080;19.652;2023-02-22T00:28:35;94243.84;;;27.94;32.69
65127;BME280;51927;49.080;19.652;2023-02-22T00:28:41;94248.06;;;27.95;32.73
65127;BME280;51927;49.080;19.652;2023-02-22T00:28:47;94245.38;;;27.95;32.47
65127;BME280;51927;49.080;19.652;2023-02-22T00:28:53;94239.22;;;27.94;32.67
65127;BME280;51927;49.080;19.652;2023-02-22T00:28:58;94242.69;;;27.95;32.74
65127;BME280;51927;49.080;19.652;2023-02-22T00:29:03;94244.59;;;27.94;32.34
65127;BME280;51927;49.080;19.652;2023-02-22T00:29:08;94240.38;;;27.93;32.50
65127;BME280;51927;49.080;19.652;2023-02-22T00:29:13;94248.44;;;27.93;32.69
65127;BME280;51927;49.080;19.652;2023-02-22T00:29:19;94244.59;;;27.94;32.49
65127;BME280;51927;49.080;19.652;2023-02-22T00:29:24;94239.22;;;27.94;32.67
65127;BME280;51927;49.080;19.652;2023-02-22T00:29:29;94241.13;;;27.94;32.70
65127;BME280;51927;49.080;19.652;2023-02-22T00:29:34;94243.84;;;27.94;32.53
65127;BME280;51927;49.080;19.652;2023-02-22T00:29:43;94241.91;;;27.94;32.59
65127;BME280;51927;49.080;19.652;2023-02-22T00:29:48;94241.91;;;27.94;32.47
65127;BME280;51927;49.080;19.652;2023-02-22T00:29:53;94249.97;;;27.94;32.73
65127;BME280;51927;49.080;19.652;2023-02-22T00:30:00;94245.38;;;27.95;32.56
65127;BME280;51927;49.080;19.652;2023-02-22T00:30:06;94245.38;;;27.95;32.62
65127;BME280;51927;49.080;19.652;2023-02-22T00:30:15;94245.38;;;27.95;32.63
65127;BME280;51927;49.080;19.652;2023-02-22T00:30:24;94244.59;;;27.94;32.71
65127;BME280;51927;49.080;19.652;2023-02-22T00:30:31;94243.84;;;27.94;32.75
65127;BME280;51927;49.080;19.652;2023-02-22T00:30:37;94244.59;;;27.94;32.73
65127;BME280;51927;49.080;19.652;2023-02-22T00:30:43;94244.59;;;27.94;32.64
65127;BME280;51927;49.080;19.652;2023-02-22T00:30:48;94249.22;;;27.94;32.51
65127;BME280;51927;49.080;19.652;2023-02-22T00:30:53;94244.59;;;27.94;32.71
65127;BME280;51927;49.080;19.652;2023-02-22T00:30:59;94246.53;;;27.94;32.74
65127;BME280;51927;49.080;19.652;2023-02-22T00:31:04;94247.28;;;27.94;32.62
65127;BME280;51927;49.080;19.652;2023-02-22T00:31:10;94243.84;;;27.94;32.52
65127;BME280;51927;49.080;19.652;2023-02-22T00:31:15;94239.22;;;27.94;32.49
65127;BME280;51927;49.080;19.652;2023-02-22T00:31:21;94244.59;;;27.94;32.59
65127;BME280;51927;49.080;19.652;2023-02-22T00:31:26;94243.84;;;27.94;32.23
65127;BME280;51927;49.080;19.652;2023-02-22T00:31:35;94248.06;;;27.95;32.64
65127;BME280;51927;49.080;19.652;2023-02-22T00:31:41;94244.59;;;27.94;32.52
65127;BME280;51927;49.080;19.652;2023-02-22T00:31:46;94246.19;;;27.95;32.46
65127;BME280;51927;49.080;19.652;2023-02-22T00:31:51;94252.69;;;27.94;32.50
65127;BME280;51927;49.080;19.652;2023-02-22T00:31:56;94244.25;;;27.96;32.25
65127;BME280;51927;49.080;19.652;2023-02-22T00:32:01;94246.19;;;27.95;32.62
65127;BME280;51927;49.080;19.652;2023-02-22T00:32:07;94244.59;;;27.94;32.64
65127;BME280;51927;49.080;19.652;2023-02-22T00:32:12;94250.75;;;27.95;32.49
65127;BME280;51927;49.080;19.652;2023-02-22T00:32:17;94245.38;;;27.95;32.67
65127;BME280;51927;49.080;19.652;2023-02-22T00:32:22;94244.59;;;27.94;32.73
65127;BME280;51927;49.080;19.652;2023-02-22T00:32:28;94248.88;;;27.95;32.40
65127;BME280;51927;49.080;19.652;2023-02-22T00:32:33;94244.59;;;27.94;32.34
65127;BME280;51927;49.080;19.652;2023-02-22T00:32:38;94237.69;;;27.93;32.70
65127;BME280;51927;49.080;19.652;2023-02-22T00:32:47;94242.69;;;27.95;32.57
65127;BME280;51927;49.080;19.652;2023-02-22T00:32:54;94244.59;;;27.94;32.50
65127;BME280;51927;49.080;19.652;2023-02-22T00:33:00;94243.84;;;27.94;32.29
65127;BME280;51927;49.080;19.652;2023-02-22T00:33:05;94241.13;;;27.94;32.54
65127;BME280;51927;49.080;19.652;2023-02-22T00:33:11;94245.75;;;27.93;32.65
65127;BME280;51927;49.080;19.652;2023-02-22T00:33:17;94240.38;;;27.93;32.52
65127;BME280;51927;49.080;19.652;2023-02-22T00:33:22;94246.53;;;27.94;32.53
65127;BME280;51927;49.080;19.652;2023-02-22T00:33:27;94238.44;;;27.94;32.32
65127;BME280;51927;49.080;19.652;2023-02-22T00:33:32;94241.13;;;27.94;32.80
65127;BME280;51927;49.080;19.652;2023-02-22T00:33:38;94244.59;;;27.94;32.68
65127;BME280;51927;49.080;19.652;2023-02-22T00:33:43;94244.59;;;27.94;32.58